createdAt,value
2023-08-10T00:00:00.930Z,0.00
2023-08-10T00:01:00.969Z,0.00
2023-08-10T00:02:00.911Z,0.00
2023-08-10T00:03:00.984Z,0.00
2023-08-10T00:04:01.037Z,0.00
2023-08-10T00:05:00.889Z,0.00
2023-08-10T00:06:00.877Z,0.00
2023-08-10T00:07:00.879Z,0.00
2023-08-10T00:08:00.867Z,0.00
2023-08-10T00:09:00.875Z,0.00
2023-08-10T00:10:00.846Z,0.00
2023-08-10T00:11:00.837Z,0.00
2023-08-10T00:12:00.830Z,0.00
2023-08-10T00:13:00.850Z,0.00
2023-08-10T00:14:00.836Z,0.00
2023-08-10T00:15:00.803Z,0.00
2023-08-10T00:16:00.823Z,0.00
2023-08-10T00:17:00.836Z,0.00
2023-08-10T00:18:00.857Z,0.00
2023-08-10T00:19:00.784Z,0.00
2023-08-10T00:20:00.775Z,0.00
2023-08-10T00:21:00.768Z,0.00
2023-08-10T00:22:00.756Z,0.00
2023-08-10T00:23:00.770Z,0.00
2023-08-10T00:24:00.741Z,0.00
2023-08-10T00:25:00.733Z,0.00
2023-08-10T00:26:00.726Z,0.00
2023-08-10T00:27:00.717Z,0.00
2023-08-10T00:28:00.726Z,0.00
2023-08-10T00:29:00.714Z,0.00
2023-08-10T00:30:00.716Z,0.00
2023-08-10T00:31:00.743Z,0.00
2023-08-10T00:32:00.680Z,0.00
2023-08-10T00:33:00.732Z,0.00
2023-08-10T00:34:00.664Z,0.00
2023-08-10T00:35:00.682Z,0.00
2023-08-10T00:36:00.650Z,0.00
2023-08-10T00:37:00.666Z,0.00
2023-08-10T00:38:00.654Z,0.00
2023-08-10T00:39:00.648Z,0.00
2023-08-10T00:40:00.669Z,0.00
2023-08-10T00:41:00.602Z,0.00
2023-08-10T00:42:00.666Z,0.00
2023-08-10T00:43:00.580Z,0.00
2023-08-10T00:44:01.584Z,0.00
2023-08-10T00:45:00.583Z,0.00
2023-08-10T00:46:00.622Z,0.00
2023-08-10T00:47:00.603Z,0.00
2023-08-10T00:48:00.618Z,0.00
2023-08-10T00:49:00.548Z,0.00
2023-08-10T00:50:00.585Z,0.00
2023-08-10T00:51:00.558Z,0.00
2023-08-10T00:52:00.544Z,0.00
2023-08-10T00:53:00.528Z,0.00
2023-08-10T00:54:00.508Z,0.00
2023-08-10T00:55:00.490Z,0.00
2023-08-10T00:56:00.587Z,0.00
2023-08-10T00:57:00.546Z,0.00
2023-08-10T00:58:00.473Z,0.00
2023-08-10T00:59:00.464Z,0.00
2023-08-10T01:00:00.453Z,0.00
2023-08-10T01:01:07.403Z,0.00
2023-08-10T01:02:00.470Z,0.00
2023-08-10T01:03:00.530Z,0.00
2023-08-10T01:04:00.459Z,0.00
2023-08-10T01:05:00.427Z,0.00
2023-08-10T01:06:00.437Z,0.00
2023-08-10T01:07:00.403Z,0.00
2023-08-10T01:08:00.399Z,0.00
2023-08-10T01:09:00.388Z,0.00
2023-08-10T01:10:00.391Z,0.00
2023-08-10T01:11:00.401Z,0.00
2023-08-10T01:12:00.450Z,0.00
2023-08-10T01:13:00.346Z,0.00
2023-08-10T01:14:01.354Z,0.00
2023-08-10T01:15:00.353Z,0.00
2023-08-10T01:16:00.385Z,0.00
2023-08-10T01:17:00.330Z,0.00
2023-08-10T01:18:00.394Z,0.00
2023-08-10T01:19:00.314Z,0.00
2023-08-10T01:20:00.343Z,0.00
2023-08-10T01:21:00.321Z,0.00
2023-08-10T01:22:00.303Z,0.00
2023-08-10T01:23:00.308Z,0.00
2023-08-10T01:24:00.276Z,0.00
2023-08-10T01:25:00.300Z,0.00
2023-08-10T01:26:00.286Z,0.00
2023-08-10T01:27:00.253Z,0.00
2023-08-10T01:28:00.240Z,0.00
2023-08-10T01:29:00.232Z,0.00
2023-08-10T01:30:00.262Z,0.00
2023-08-10T01:31:00.216Z,0.00
2023-08-10T01:32:00.286Z,0.00
2023-08-10T01:33:01.232Z,0.00
2023-08-10T01:34:00.199Z,0.00
2023-08-10T01:35:00.223Z,0.00
2023-08-10T01:36:00.196Z,0.00
2023-08-10T01:37:00.178Z,0.00
2023-08-10T01:38:00.177Z,0.00
2023-08-10T01:39:00.356Z,0.00
2023-08-10T01:40:00.184Z,0.00
2023-08-10T01:41:00.146Z,0.00
2023-08-10T01:42:00.133Z,0.00
2023-08-10T01:43:00.125Z,0.00
2023-08-10T01:44:00.365Z,0.00
2023-08-10T01:45:00.138Z,0.00
2023-08-10T01:46:00.172Z,0.00
2023-08-10T01:47:00.098Z,0.00
2023-08-10T01:48:00.179Z,0.00
2023-08-10T01:49:00.403Z,0.00
2023-08-10T01:50:00.129Z,0.00
2023-08-10T01:51:00.067Z,0.00
2023-08-10T01:52:00.061Z,0.00
2023-08-10T01:53:01.059Z,0.00
2023-08-10T01:54:00.395Z,0.00
2023-08-10T01:55:00.050Z,0.00
2023-08-10T01:56:00.052Z,0.00
2023-08-10T01:57:00.016Z,0.00
2023-08-10T01:58:00.032Z,0.00
2023-08-10T01:59:00.398Z,0.00
2023-08-10T01:59:59.996Z,0.00
2023-08-10T02:00:59.986Z,0.00
2023-08-10T02:01:59.991Z,0.00
2023-08-10T02:03:00.020Z,0.00
2023-08-10T02:03:59.981Z,0.00
2023-08-10T02:04:59.955Z,0.00
2023-08-10T02:05:59.943Z,0.00
2023-08-10T02:06:59.935Z,0.00
2023-08-10T02:07:59.955Z,0.00
2023-08-10T02:08:59.934Z,0.00
2023-08-10T02:09:59.920Z,0.00
2023-08-10T02:10:59.922Z,0.00
2023-08-10T02:11:59.904Z,0.00
2023-08-10T02:12:59.923Z,0.00
2023-08-10T02:13:59.888Z,0.00
2023-08-10T02:14:59.890Z,0.00
2023-08-10T02:15:59.913Z,0.00
2023-08-10T02:17:00.892Z,0.00
2023-08-10T02:17:59.944Z,0.00
2023-08-10T02:18:59.848Z,0.00
2023-08-10T02:19:59.849Z,0.00
2023-08-10T02:20:59.843Z,0.00
2023-08-10T02:21:59.888Z,0.00
2023-08-10T02:22:59.813Z,0.00
2023-08-10T02:23:59.820Z,0.00
2023-08-10T02:24:59.800Z,0.00
2023-08-10T02:25:59.795Z,0.00
2023-08-10T02:26:59.813Z,0.00
2023-08-10T02:27:59.780Z,0.00
2023-08-10T02:28:59.774Z,0.00
2023-08-10T02:29:59.762Z,0.00
2023-08-10T02:30:59.811Z,0.00
2023-08-10T02:31:59.795Z,0.00
2023-08-10T02:32:59.787Z,0.00
2023-08-10T02:33:59.745Z,0.00
2023-08-10T02:34:59.724Z,0.00
2023-08-10T02:35:59.745Z,0.00
2023-08-10T02:36:59.749Z,0.00
2023-08-10T02:37:59.700Z,0.00
2023-08-10T02:38:59.697Z,0.00
2023-08-10T02:39:59.688Z,0.00
2023-08-10T02:40:59.711Z,0.00
2023-08-10T02:41:59.668Z,0.00
2023-08-10T02:42:59.660Z,0.00
2023-08-10T02:43:59.652Z,0.00
2023-08-10T02:44:59.691Z,0.00
2023-08-10T02:45:59.691Z,0.00
2023-08-10T02:46:59.668Z,0.00
2023-08-10T02:47:59.643Z,0.00
2023-08-10T02:48:59.631Z,0.00
2023-08-10T02:49:59.678Z,0.00
2023-08-10T02:50:59.628Z,0.00
2023-08-10T02:51:59.618Z,0.00
2023-08-10T02:52:59.595Z,0.00
2023-08-10T02:53:59.580Z,0.00
2023-08-10T02:54:59.599Z,0.00
2023-08-10T02:55:59.585Z,0.00
2023-08-10T02:56:59.558Z,0.00
2023-08-10T02:57:59.547Z,0.00
2023-08-10T02:58:59.556Z,0.00
2023-08-10T02:59:59.564Z,0.00
2023-08-10T03:00:59.550Z,0.00
2023-08-10T03:01:59.525Z,0.00
2023-08-10T03:02:59.534Z,0.00
2023-08-10T03:03:59.576Z,0.00
2023-08-10T03:04:59.518Z,0.00
2023-08-10T03:05:59.493Z,0.00
2023-08-10T03:06:59.466Z,0.00
2023-08-10T03:08:00.482Z,0.00
2023-08-10T03:08:59.462Z,0.00
2023-08-10T03:09:59.482Z,0.00
2023-08-10T03:10:59.457Z,0.00
2023-08-10T03:11:59.438Z,0.00
2023-08-10T03:12:59.433Z,0.00
2023-08-10T03:13:59.461Z,0.00
2023-08-10T03:14:59.445Z,0.00
2023-08-10T03:15:59.458Z,0.00
2023-08-10T03:16:59.463Z,0.00
2023-08-10T03:17:59.438Z,0.00
2023-08-10T03:18:59.413Z,0.00
2023-08-10T03:19:59.375Z,0.00
2023-08-10T03:20:59.363Z,0.00
2023-08-10T03:21:59.360Z,0.00
2023-08-10T03:22:59.360Z,0.00
2023-08-10T03:23:59.366Z,0.00
2023-08-10T03:24:59.334Z,0.00
2023-08-10T03:25:59.323Z,0.00
2023-08-10T03:26:59.321Z,0.00
2023-08-10T03:27:59.337Z,0.00
2023-08-10T03:28:59.329Z,0.00
2023-08-10T03:29:59.294Z,0.00
2023-08-10T03:30:59.306Z,0.00
2023-08-10T03:31:59.291Z,0.00
2023-08-10T03:32:59.336Z,0.00
2023-08-10T03:33:59.270Z,0.00
2023-08-10T03:34:59.255Z,0.00
2023-08-10T03:35:59.248Z,0.00
2023-08-10T03:36:59.231Z,0.00
2023-08-10T03:37:59.299Z,0.00
2023-08-10T03:38:59.230Z,0.00
2023-08-10T03:39:59.219Z,0.00
2023-08-10T03:40:59.211Z,0.00
2023-08-10T03:41:59.222Z,0.00
2023-08-10T03:42:59.218Z,0.00
2023-08-10T03:43:59.185Z,0.00
2023-08-10T03:44:59.168Z,0.00
2023-08-10T03:45:59.178Z,0.00
2023-08-10T03:46:59.180Z,0.00
2023-08-10T03:47:59.216Z,0.00
2023-08-10T03:48:59.137Z,0.00
2023-08-10T03:49:59.136Z,5.62
2023-08-10T03:50:59.132Z,5.62
2023-08-10T03:51:59.145Z,5.62
2023-08-10T03:52:59.141Z,5.62
2023-08-10T03:53:59.107Z,5.62
2023-08-10T03:54:59.116Z,5.62
2023-08-10T03:55:59.092Z,5.62
2023-08-10T03:56:59.112Z,5.62
2023-08-10T03:57:59.082Z,5.62
2023-08-10T03:58:59.073Z,11.25
2023-08-10T03:59:59.070Z,11.25
2023-08-10T04:00:59.214Z,11.25
2023-08-10T04:01:59.071Z,11.25
2023-08-10T04:02:59.090Z,11.25
2023-08-10T04:03:59.495Z,16.88
2023-08-10T04:04:59.020Z,16.88
2023-08-10T04:05:59.066Z,16.88
2023-08-10T04:06:59.014Z,22.50
2023-08-10T04:07:59.012Z,22.50
2023-08-10T04:08:58.995Z,22.50
2023-08-10T04:09:58.990Z,28.12
2023-08-10T04:10:59.031Z,28.12
2023-08-10T04:11:58.975Z,33.75
2023-08-10T04:12:58.982Z,33.75
2023-08-10T04:13:58.965Z,39.38
2023-08-10T04:14:58.947Z,39.38
2023-08-10T04:15:58.973Z,45.00
2023-08-10T04:16:59.020Z,50.62
2023-08-10T04:17:58.988Z,50.62
2023-08-10T04:18:58.923Z,56.25
2023-08-10T04:19:58.949Z,61.88
2023-08-10T04:20:58.933Z,67.50
2023-08-10T04:21:58.900Z,73.12
2023-08-10T04:22:58.896Z,95.62
2023-08-10T04:23:58.890Z,112.50
2023-08-10T04:24:58.898Z,106.88
2023-08-10T04:25:58.900Z,95.62
2023-08-10T04:26:58.858Z,95.62
2023-08-10T04:27:58.847Z,106.88
2023-08-10T04:28:58.836Z,112.50
2023-08-10T04:29:58.861Z,118.12
2023-08-10T04:30:58.848Z,129.38
2023-08-10T04:31:58.820Z,140.62
2023-08-10T04:32:58.854Z,146.25
2023-08-10T04:33:58.805Z,213.75
2023-08-10T04:34:58.852Z,303.75
2023-08-10T04:35:58.795Z,326.25
2023-08-10T04:36:58.792Z,303.75
2023-08-10T04:37:58.776Z,202.50
2023-08-10T04:38:58.793Z,191.25
2023-08-10T04:39:58.791Z,202.50
2023-08-10T04:40:58.757Z,208.12
2023-08-10T04:41:58.745Z,213.75
2023-08-10T04:42:58.740Z,225.00
2023-08-10T04:43:58.905Z,230.62
2023-08-10T04:44:58.718Z,258.75
2023-08-10T04:45:58.755Z,354.38
2023-08-10T04:46:58.704Z,506.25
2023-08-10T04:47:58.714Z,500.62
2023-08-10T04:48:58.722Z,331.88
2023-08-10T04:49:58.682Z,309.38
2023-08-10T04:50:58.668Z,517.50
2023-08-10T04:51:58.668Z,877.50
2023-08-10T04:52:58.651Z,810.00
2023-08-10T04:53:58.673Z,804.38
2023-08-10T04:54:58.659Z,691.88
2023-08-10T04:55:58.637Z,337.50
2023-08-10T04:56:58.619Z,343.12
2023-08-10T04:57:58.639Z,348.75
2023-08-10T04:58:58.630Z,343.12
2023-08-10T04:59:58.597Z,348.75
2023-08-10T05:00:58.589Z,360.00
2023-08-10T05:01:58.598Z,405.00
2023-08-10T05:02:58.684Z,579.38
2023-08-10T05:03:58.597Z,405.00
2023-08-10T05:04:58.560Z,416.25
2023-08-10T05:05:58.551Z,686.25
2023-08-10T05:06:58.542Z,466.88
2023-08-10T05:07:58.554Z,1389.38
2023-08-10T05:08:58.527Z,1108.12
2023-08-10T05:09:58.521Z,500.62
2023-08-10T05:10:58.514Z,495.00
2023-08-10T05:11:58.505Z,528.75
2023-08-10T05:12:58.532Z,781.88
2023-08-10T05:13:58.495Z,1288.12
2023-08-10T05:14:58.485Z,748.12
2023-08-10T05:15:58.495Z,652.50
2023-08-10T05:16:58.527Z,1175.62
2023-08-10T05:17:58.531Z,579.38
2023-08-10T05:18:58.455Z,523.12
2023-08-10T05:19:58.451Z,495.00
2023-08-10T05:20:58.443Z,753.75
2023-08-10T05:21:58.457Z,500.62
2023-08-10T05:22:58.421Z,663.75
2023-08-10T05:23:58.415Z,511.88
2023-08-10T05:24:59.416Z,568.12
2023-08-10T05:25:58.405Z,556.88
2023-08-10T05:26:58.429Z,1721.25
2023-08-10T05:27:58.395Z,2103.75
2023-08-10T05:28:58.377Z,1850.62
2023-08-10T05:29:58.366Z,1923.75
2023-08-10T05:30:58.362Z,900.00
2023-08-10T05:31:58.411Z,1591.88
2023-08-10T05:32:58.381Z,1350.00
2023-08-10T05:33:58.348Z,1226.25
2023-08-10T05:34:58.336Z,2109.38
2023-08-10T05:35:58.362Z,2216.25
2023-08-10T05:36:58.349Z,2143.12
2023-08-10T05:37:58.314Z,2041.88
2023-08-10T05:38:58.303Z,720.00
2023-08-10T05:39:58.307Z,1029.38
2023-08-10T05:40:58.346Z,810.00
2023-08-10T05:41:58.283Z,725.62
2023-08-10T05:42:58.269Z,1068.75
2023-08-10T05:43:58.270Z,2092.50
2023-08-10T05:44:58.263Z,2323.12
2023-08-10T05:45:58.350Z,2373.75
2023-08-10T05:46:58.246Z,2491.88
2023-08-10T05:47:58.250Z,2671.88
2023-08-10T05:48:58.223Z,2576.25
2023-08-10T05:49:58.241Z,2030.62
2023-08-10T05:50:58.281Z,984.38
2023-08-10T05:51:58.205Z,793.12
2023-08-10T05:52:58.198Z,725.62
2023-08-10T05:53:58.189Z,703.12
2023-08-10T05:54:58.219Z,725.62
2023-08-10T05:55:58.196Z,821.25
2023-08-10T05:57:00.289Z,742.50
2023-08-10T05:57:59.178Z,770.62
2023-08-10T05:58:58.142Z,1321.88
2023-08-10T05:59:59.178Z,2610.00
2023-08-10T06:00:58.164Z,2092.50
2023-08-10T06:01:58.121Z,1715.62
2023-08-10T06:02:58.142Z,933.75
2023-08-10T06:03:58.149Z,933.75
2023-08-10T06:04:58.130Z,978.75
2023-08-10T06:05:58.093Z,2531.25
2023-08-10T06:06:58.092Z,2750.62
2023-08-10T06:07:58.074Z,990.00
2023-08-10T06:08:58.100Z,826.88
2023-08-10T06:09:58.088Z,826.88
2023-08-10T06:10:58.058Z,860.62
2023-08-10T06:11:58.062Z,956.25
2023-08-10T06:12:58.044Z,2812.50
2023-08-10T06:13:58.060Z,2598.75
2023-08-10T06:14:58.027Z,2913.75
2023-08-10T06:15:58.051Z,2514.38
2023-08-10T06:16:58.009Z,3082.50
2023-08-10T06:17:58.040Z,3020.62
2023-08-10T06:18:58.020Z,3043.12
2023-08-10T06:19:59.450Z,3093.75
2023-08-10T06:20:59.005Z,3071.25
2023-08-10T06:21:57.973Z,3048.75
2023-08-10T06:22:57.964Z,2913.75
2023-08-10T06:23:57.988Z,2649.38
2023-08-10T06:24:57.952Z,3093.75
2023-08-10T06:25:57.954Z,3206.25
2023-08-10T06:26:57.936Z,3228.75
2023-08-10T06:27:57.957Z,3150.00
2023-08-10T06:28:57.950Z,3082.50
2023-08-10T06:29:57.916Z,2981.25
2023-08-10T06:30:57.946Z,2885.62
2023-08-10T06:31:57.904Z,2936.25
2023-08-10T06:32:57.979Z,2964.38
2023-08-10T06:33:57.895Z,3003.75
2023-08-10T06:34:57.885Z,3082.50
2023-08-10T06:35:57.875Z,3082.50
2023-08-10T06:36:57.888Z,2992.50
2023-08-10T06:37:57.886Z,2981.25
2023-08-10T06:38:57.852Z,2851.88
2023-08-10T06:39:57.858Z,2941.88
2023-08-10T06:40:57.846Z,3065.62
2023-08-10T06:41:57.864Z,3099.38
2023-08-10T06:42:57.843Z,3144.38
2023-08-10T06:43:57.819Z,3161.25
2023-08-10T06:44:57.821Z,3206.25
2023-08-10T06:45:57.806Z,3127.50
2023-08-10T06:46:57.882Z,3183.75
2023-08-10T06:47:57.864Z,3161.25
2023-08-10T06:48:57.789Z,3026.25
2023-08-10T06:49:57.788Z,3037.50
2023-08-10T06:50:57.788Z,3155.62
2023-08-10T06:51:57.805Z,3200.62
2023-08-10T06:52:57.770Z,3251.25
2023-08-10T06:53:57.757Z,3228.75
2023-08-10T06:54:57.755Z,3133.12
2023-08-10T06:55:58.961Z,3082.50
2023-08-10T06:56:58.763Z,3093.75
2023-08-10T06:57:57.744Z,3161.25
2023-08-10T07:00:33.585Z,3262.50
2023-08-10T07:00:59.766Z,3245.62
2023-08-10T07:01:57.754Z,3279.38
2023-08-10T07:02:57.758Z,3178.12
2023-08-10T07:03:57.705Z,3296.25
2023-08-10T07:04:57.692Z,3408.75
2023-08-10T07:05:57.711Z,3481.88
2023-08-10T07:06:57.684Z,3493.12
2023-08-10T07:07:57.716Z,3493.12
2023-08-10T07:08:57.672Z,3459.38
2023-08-10T07:09:57.685Z,3391.88
2023-08-10T07:10:57.681Z,3420.00
2023-08-10T07:11:57.654Z,3369.38
2023-08-10T07:12:57.646Z,3375.00
2023-08-10T07:13:57.642Z,3341.25
2023-08-10T07:14:57.656Z,3375.00
2023-08-10T07:15:57.658Z,3352.50
2023-08-10T07:16:57.644Z,3313.12
2023-08-10T07:17:57.720Z,3206.25
2023-08-10T07:18:57.607Z,3178.12
2023-08-10T07:19:57.630Z,3245.62
2023-08-10T07:20:57.607Z,3290.62
2023-08-10T07:21:57.594Z,3296.25
2023-08-10T07:22:57.584Z,3498.75
2023-08-10T07:23:57.591Z,3453.75
2023-08-10T07:24:57.637Z,3408.75
2023-08-10T07:25:57.582Z,3273.75
2023-08-10T07:26:57.564Z,3386.25
2023-08-10T07:27:57.556Z,3324.38
2023-08-10T07:28:57.551Z,3448.12
2023-08-10T07:29:57.573Z,3476.25
2023-08-10T07:30:57.564Z,3386.25
2023-08-10T07:31:57.540Z,3380.62
2023-08-10T07:32:57.581Z,2868.75
2023-08-10T07:33:57.549Z,2137.50
2023-08-10T07:34:57.541Z,1406.25
2023-08-10T07:35:57.529Z,3262.50
2023-08-10T07:36:57.510Z,3369.38
2023-08-10T07:37:57.497Z,3661.88
2023-08-10T07:38:57.530Z,3656.25
2023-08-10T07:39:57.480Z,3549.38
2023-08-10T07:40:57.484Z,3583.12
2023-08-10T07:41:57.479Z,3532.50
2023-08-10T07:42:57.467Z,3431.25
2023-08-10T07:43:57.483Z,3408.75
2023-08-10T07:44:57.456Z,3481.88
2023-08-10T07:45:57.462Z,3639.38
2023-08-10T07:46:57.469Z,3757.50
2023-08-10T07:47:57.439Z,3695.62
2023-08-10T07:48:57.455Z,3673.12
2023-08-10T07:49:57.428Z,3650.62
2023-08-10T07:50:57.423Z,3538.12
2023-08-10T07:51:57.416Z,3504.38
2023-08-10T07:52:57.431Z,3453.75
2023-08-10T07:53:57.434Z,3588.75
2023-08-10T07:54:57.399Z,3650.62
2023-08-10T07:55:57.388Z,3656.25
2023-08-10T07:56:57.390Z,3695.62
2023-08-10T07:57:57.419Z,3673.12
2023-08-10T07:58:57.375Z,3729.38
2023-08-10T07:59:57.372Z,3808.12
2023-08-10T08:00:57.368Z,3695.62
2023-08-10T08:01:57.362Z,3661.88
2023-08-10T08:02:57.421Z,3628.12
2023-08-10T08:03:57.460Z,3566.25
2023-08-10T08:04:57.383Z,3588.75
2023-08-10T08:05:57.349Z,3785.62
2023-08-10T08:06:58.401Z,3819.38
2023-08-10T08:07:57.349Z,3650.62
2023-08-10T08:08:57.324Z,3656.25
2023-08-10T08:09:57.317Z,3661.88
2023-08-10T08:10:57.310Z,3780.00
2023-08-10T08:11:57.351Z,3780.00
2023-08-10T08:12:57.297Z,3757.50
2023-08-10T08:13:57.296Z,3723.75
2023-08-10T08:14:57.297Z,3746.25
2023-08-10T08:15:57.301Z,3768.75
2023-08-10T08:16:57.305Z,3656.25
2023-08-10T08:17:57.299Z,3526.88
2023-08-10T08:18:57.278Z,3566.25
2023-08-10T08:19:57.585Z,3611.25
2023-08-10T08:20:57.252Z,3459.38
2023-08-10T08:21:57.277Z,3262.50
2023-08-10T08:22:57.253Z,2829.38
2023-08-10T08:23:57.242Z,2334.38
2023-08-10T08:24:57.232Z,2070.00
2023-08-10T08:25:57.249Z,2058.75
2023-08-10T08:26:57.249Z,2075.62
2023-08-10T08:27:57.270Z,2092.50
2023-08-10T08:28:57.208Z,2070.00
2023-08-10T08:29:57.211Z,2058.75
2023-08-10T08:30:57.239Z,2030.62
2023-08-10T08:31:57.634Z,2002.50
2023-08-10T08:32:58.299Z,1991.25
2023-08-10T08:33:57.179Z,1968.75
2023-08-10T08:34:57.179Z,1940.62
2023-08-10T08:35:57.200Z,1890.00
2023-08-10T08:36:57.172Z,1850.62
2023-08-10T08:37:57.168Z,1850.62
2023-08-10T08:38:57.154Z,1816.88
2023-08-10T08:39:57.192Z,1783.12
2023-08-10T08:40:57.180Z,1771.88
2023-08-10T08:41:57.159Z,1766.25
2023-08-10T08:42:57.137Z,1715.62
2023-08-10T08:43:57.135Z,1710.00
2023-08-10T08:44:57.147Z,1676.25
2023-08-10T08:45:57.451Z,1676.25
2023-08-10T08:46:57.117Z,1659.38
2023-08-10T08:47:57.153Z,1642.50
2023-08-10T08:48:57.101Z,1648.12
2023-08-10T08:49:57.116Z,1648.12
2023-08-10T08:50:57.119Z,1642.50
2023-08-10T08:51:57.089Z,1648.12
2023-08-10T08:52:57.073Z,1648.12
2023-08-10T08:53:57.102Z,1636.88
2023-08-10T08:54:57.087Z,1620.00
2023-08-10T08:55:57.061Z,1603.12
2023-08-10T08:56:57.053Z,1608.75
2023-08-10T08:57:57.046Z,1631.25
2023-08-10T08:58:57.079Z,1648.12
2023-08-10T08:59:57.032Z,1681.88
2023-08-10T09:00:57.057Z,1693.12
2023-08-10T09:02:01.941Z,1687.50
2023-08-10T09:02:58.053Z,1710.00
2023-08-10T09:03:57.240Z,1710.00
2023-08-10T09:04:57.017Z,1726.88
2023-08-10T09:05:56.994Z,1755.00
2023-08-10T09:06:56.990Z,1507.50
2023-08-10T09:07:57.027Z,1788.75
2023-08-10T09:08:57.001Z,1738.12
2023-08-10T09:09:56.994Z,1738.12
2023-08-10T09:10:56.977Z,1721.25
2023-08-10T09:11:56.957Z,1766.25
2023-08-10T09:12:56.990Z,1726.88
2023-08-10T09:13:56.947Z,1760.62
2023-08-10T09:14:56.951Z,1822.50
2023-08-10T09:15:57.023Z,1636.88
2023-08-10T09:16:56.930Z,1951.88
2023-08-10T09:17:56.961Z,2025.00
2023-08-10T09:18:56.920Z,2171.25
2023-08-10T09:19:56.915Z,2306.25
2023-08-10T09:20:56.905Z,2407.50
2023-08-10T09:21:56.894Z,1833.75
2023-08-10T09:22:56.934Z,2446.88
2023-08-10T09:23:56.885Z,2435.62
2023-08-10T09:24:56.881Z,2362.50
2023-08-10T09:25:56.895Z,2250.00
2023-08-10T09:26:56.867Z,2244.38
2023-08-10T09:27:56.910Z,2086.88
2023-08-10T09:28:56.891Z,2002.50
2023-08-10T09:29:56.847Z,1890.00
2023-08-10T09:30:56.839Z,1788.75
2023-08-10T09:31:56.895Z,1676.25
2023-08-10T09:32:56.882Z,1603.12
2023-08-10T09:33:56.838Z,1507.50
2023-08-10T09:34:56.819Z,1378.12
2023-08-10T09:35:56.799Z,675.00
2023-08-10T09:36:56.824Z,635.62
2023-08-10T09:37:56.820Z,708.75
2023-08-10T09:39:01.339Z,990.00
2023-08-10T09:39:57.786Z,978.75
2023-08-10T09:40:56.765Z,613.12
2023-08-10T09:41:57.790Z,579.38
2023-08-10T09:42:56.764Z,596.25
2023-08-10T09:43:56.782Z,703.12
2023-08-10T09:44:56.747Z,905.62
2023-08-10T09:45:56.752Z,601.88
2023-08-10T09:46:56.765Z,568.12
2023-08-10T09:47:56.758Z,528.75
2023-08-10T09:48:56.722Z,528.75
2023-08-10T09:49:57.733Z,579.38
2023-08-10T09:50:56.735Z,590.62
2023-08-10T09:51:56.793Z,556.88
2023-08-10T09:52:56.694Z,596.25
2023-08-10T09:53:56.710Z,556.88
2023-08-10T09:54:56.680Z,517.50
2023-08-10T09:55:56.739Z,495.00
2023-08-10T09:56:56.691Z,483.75
2023-08-10T09:57:56.659Z,731.25
2023-08-10T09:58:56.649Z,731.25
2023-08-10T09:59:56.679Z,540.00
2023-08-10T10:00:56.697Z,534.38
2023-08-10T10:01:56.676Z,511.88
2023-08-10T10:02:56.648Z,753.75
2023-08-10T10:03:56.741Z,748.12
2023-08-10T10:04:56.637Z,720.00
2023-08-10T10:05:56.625Z,742.50
2023-08-10T10:06:56.614Z,489.38
2023-08-10T10:07:56.602Z,534.38
2023-08-10T10:08:56.579Z,495.00
2023-08-10T10:09:56.629Z,483.75
2023-08-10T10:10:56.757Z,489.38
2023-08-10T10:11:56.578Z,483.75
2023-08-10T10:12:56.547Z,466.88
2023-08-10T10:13:56.545Z,472.50
2023-08-10T10:14:56.565Z,562.50
2023-08-10T10:15:56.657Z,478.12
2023-08-10T10:16:56.514Z,466.88
2023-08-10T10:17:56.701Z,450.00
2023-08-10T10:18:56.523Z,455.62
2023-08-10T10:19:56.538Z,455.62
2023-08-10T10:20:56.494Z,523.12
2023-08-10T10:21:56.488Z,500.62
2023-08-10T10:22:56.492Z,466.88
2023-08-10T10:23:56.575Z,691.88
2023-08-10T10:24:56.472Z,691.88
2023-08-10T10:25:56.458Z,669.38
2023-08-10T10:26:56.445Z,658.12
2023-08-10T10:27:56.446Z,652.50
2023-08-10T10:28:56.456Z,646.88
2023-08-10T10:29:56.426Z,635.62
2023-08-10T10:30:56.486Z,388.12
2023-08-10T10:31:56.402Z,399.38
2023-08-10T10:32:56.504Z,517.50
2023-08-10T10:33:56.681Z,427.50
2023-08-10T10:34:56.459Z,658.12
2023-08-10T10:35:57.031Z,652.50
2023-08-10T10:36:56.372Z,652.50
2023-08-10T10:37:56.411Z,635.62
2023-08-10T10:38:56.384Z,618.75
2023-08-10T10:39:56.348Z,601.88
2023-08-10T10:40:56.346Z,590.62
2023-08-10T10:41:56.340Z,579.38
2023-08-10T10:42:56.351Z,579.38
2023-08-10T10:43:56.322Z,579.38
2023-08-10T10:44:56.317Z,585.00
2023-08-10T10:45:56.334Z,585.00
2023-08-10T10:46:56.320Z,579.38
2023-08-10T10:47:56.330Z,579.38
2023-08-10T10:48:56.289Z,579.38
2023-08-10T10:49:56.296Z,579.38
2023-08-10T10:50:57.127Z,579.38
2023-08-10T10:51:56.522Z,573.75
2023-08-10T10:52:56.453Z,573.75
2023-08-10T10:53:56.283Z,568.12
2023-08-10T10:54:56.249Z,568.12
2023-08-10T10:55:56.239Z,573.75
2023-08-10T10:56:56.230Z,568.12
2023-08-10T10:57:56.246Z,354.38
2023-08-10T10:58:56.220Z,444.38
2023-08-10T10:59:56.208Z,562.50
2023-08-10T11:00:56.205Z,556.88
2023-08-10T11:01:56.228Z,556.88
2023-08-10T11:02:56.215Z,540.00
2023-08-10T11:03:56.171Z,540.00
2023-08-10T11:04:56.242Z,534.38
2023-08-10T11:05:56.160Z,534.38
2023-08-10T11:06:56.177Z,534.38
2023-08-10T11:07:56.145Z,528.75
2023-08-10T11:08:56.161Z,528.75
2023-08-10T11:09:56.134Z,528.75
2023-08-10T11:10:56.125Z,523.12
2023-08-10T11:11:56.145Z,517.50
2023-08-10T11:12:56.962Z,517.50
2023-08-10T11:13:56.106Z,511.88
2023-08-10T11:14:56.204Z,511.88
2023-08-10T11:15:56.111Z,506.25
2023-08-10T11:16:58.113Z,506.25
2023-08-10T11:17:57.082Z,500.62
2023-08-10T11:18:56.069Z,495.00
2023-08-10T11:19:56.060Z,495.00
2023-08-10T11:20:56.075Z,495.00
2023-08-10T11:21:56.043Z,500.62
2023-08-10T11:22:56.035Z,500.62
2023-08-10T11:23:56.033Z,500.62
2023-08-10T11:24:56.025Z,495.00
2023-08-10T11:25:56.049Z,495.00
2023-08-10T11:26:56.014Z,489.38
2023-08-10T11:27:56.032Z,495.00
2023-08-10T11:28:55.989Z,495.00
2023-08-10T11:29:56.008Z,495.00
2023-08-10T11:30:56.393Z,495.00
2023-08-10T11:31:58.842Z,495.00
2023-08-10T11:32:56.053Z,489.38
2023-08-10T11:33:56.001Z,489.38
2023-08-10T11:34:55.988Z,483.75
2023-08-10T11:35:55.939Z,483.75
2023-08-10T11:36:55.932Z,483.75
2023-08-10T11:37:55.926Z,483.75
2023-08-10T11:38:55.924Z,478.12
2023-08-10T11:39:55.935Z,478.12
2023-08-10T11:40:55.890Z,483.75
2023-08-10T11:41:56.893Z,478.12
2023-08-10T11:42:55.888Z,365.62
2023-08-10T11:43:55.908Z,343.12
2023-08-10T11:44:55.896Z,348.75
2023-08-10T11:45:55.871Z,348.75
2023-08-10T11:46:55.856Z,348.75
2023-08-10T11:48:57.866Z,348.75
2023-08-10T11:49:55.829Z,348.75
2023-08-10T11:50:55.826Z,348.75
2023-08-10T11:51:55.825Z,348.75
2023-08-10T11:52:55.811Z,348.75
2023-08-10T11:53:55.840Z,348.75
2023-08-10T11:54:55.785Z,348.75
2023-08-10T11:55:56.789Z,348.75
2023-08-10T11:56:55.780Z,348.75
2023-08-10T11:57:55.769Z,348.75
2023-08-10T11:58:55.796Z,348.75
2023-08-10T11:59:55.755Z,348.75
2023-08-10T12:00:55.746Z,348.75
2023-08-10T12:01:55.794Z,348.75
2023-08-10T12:02:55.778Z,348.75
2023-08-10T12:03:57.638Z,348.75
2023-08-10T12:04:56.724Z,343.12
2023-08-10T12:05:55.717Z,343.12
2023-08-10T12:06:55.698Z,343.12
2023-08-10T12:07:55.736Z,343.12
2023-08-10T12:08:55.719Z,343.12
2023-08-10T12:09:55.677Z,343.12
2023-08-10T12:10:55.696Z,343.12
2023-08-10T12:11:57.400Z,354.38
2023-08-10T12:12:56.682Z,343.12
2023-08-10T12:13:55.671Z,343.12
2023-08-10T12:14:55.647Z,433.12
2023-08-10T12:15:55.680Z,343.12
2023-08-10T12:16:55.652Z,343.12
2023-08-10T12:17:55.812Z,343.12
2023-08-10T12:18:55.730Z,343.12
2023-08-10T12:19:55.599Z,343.12
2023-08-10T12:20:55.599Z,343.12
2023-08-10T12:21:55.610Z,343.12
2023-08-10T12:22:55.584Z,337.50
2023-08-10T12:23:55.577Z,337.50
2023-08-10T12:24:55.565Z,337.50
2023-08-10T12:25:55.557Z,343.12
2023-08-10T12:26:55.577Z,343.12
2023-08-10T12:27:55.598Z,337.50
2023-08-10T12:28:55.847Z,337.50
2023-08-10T12:29:55.530Z,337.50
2023-08-10T12:30:55.561Z,343.12
2023-08-10T12:31:55.595Z,343.12
2023-08-10T12:32:55.591Z,343.12
2023-08-10T12:33:55.503Z,337.50
2023-08-10T12:34:55.493Z,343.12
2023-08-10T12:35:55.510Z,337.50
2023-08-10T12:36:55.476Z,337.50
2023-08-10T12:37:55.493Z,337.50
2023-08-10T12:38:55.469Z,337.50